Time;durP1;ratioP1;P1;durP2;ratioP2;P2;SDS_P1;SDS_P2;PMS_P1;PMS_P2;Temp;Humidity;BMP_temperature;BMP_pressure;BME280_temperature;BME280_humidity;BME280_pressure;Samples;Min_cycle;Max_cycle;Signal;HPM_P1;HPM_P2
2023/07/17 00:00:29;;;;;;;0.10;0.10;;;;;;;;;;5104674;28;20044;-51
2023/07/17 00:02:55;;;;;;;0.10;0.10;;;;;;;;;;5091514;28;20457;-53
2023/07/17 00:05:20;;;;;;;0.10;0.10;;;;;;;;;;5109138;28;20047;-53
2023/07/17 00:07:46;;;;;;;0.10;0.10;;;;;;;;;;5111764;28;20051;-53
2023/07/17 00:10:11;;;;;;;0.10;0.10;;;;;;;;;;5110900;28;20404;-52
2023/07/17 00:12:38;;;;;;;0.10;0.10;;;;;;;;;;5110367;28;20458;-52
2023/07/17 00:15:05;;;;;;;0.10;0.10;;;;;;;;;;5110860;28;20052;-52
2023/07/17 00:17:31;;;;;;;0.10;0.10;;;;;;;;;;5110638;28;20399;-53
2023/07/17 00:19:56;;;;;;;0.10;0.10;;;;;;;;;;5110241;28;20050;-52
2023/07/17 00:22:23;;;;;;;0.10;0.10;;;;;;;;;;5111144;28;20048;-51
2023/07/17 00:24:49;;;;;;;0.10;0.10;;;;;;;;;;5110502;28;20540;-52
2023/07/17 00:27:15;;;;;;;0.10;0.10;;;;;;;;;;5111193;28;20070;-51
2023/07/17 00:29:43;;;;;;;0.10;0.10;;;;;;;;;;5111308;28;20476;-52
2023/07/17 00:32:11;;;;;;;0.10;0.10;;;;;;;;;;5090460;28;20052;-52
2023/07/17 00:34:37;;;;;;;0.10;0.10;;;;;;;;;;5107516;28;20048;-53
2023/07/17 00:37:03;;;;;;;0.10;0.10;;;;;;;;;;5111087;28;20047;-53
2023/07/17 00:39:28;;;;;;;0.10;0.10;;;;;;;;;;5110457;28;20078;-52
2023/07/17 00:41:54;;;;;;;0.10;0.10;;;;;;;;;;5109689;28;20062;-52
2023/07/17 00:44:19;;;;;;;0.10;0.10;;;;;;;;;;5110351;28;20052;-52
2023/07/17 00:46:46;;;;;;;0.10;0.10;;;;;;;;;;5110159;28;20058;-53
2023/07/17 00:49:11;;;;;;;0.10;0.10;;;;;;;;;;5110869;28;20055;-53
2023/07/17 00:51:38;;;;;;;0.10;0.10;;;;;;;;;;5110317;28;20039;-52
2023/07/17 00:54:03;;;;;;;0.10;0.10;;;;;;;;;;5110721;28;20047;-53
2023/07/17 00:56:29;;;;;;;0.10;0.10;;;;;;;;;;5110491;28;20048;-53
2023/07/17 00:58:55;;;;;;;0.10;0.10;;;;;;;;;;5110738;28;20039;-53
2023/07/17 01:01:21;;;;;;;0.10;0.10;;;;;;;;;;5110921;28;20086;-53
2023/07/17 01:03:47;;;;;;;0.10;0.10;;;;;;;;;;5092570;28;20051;-53
2023/07/17 01:06:13;;;;;;;0.10;0.10;;;;;;;;;;5110988;28;20806;-53
2023/07/17 01:08:38;;;;;;;0.10;0.10;;;;;;;;;;5111279;28;20048;-52
2023/07/17 01:11:04;;;;;;;0.10;0.10;;;;;;;;;;5110391;28;20100;-53
2023/07/17 01:13:30;;;;;;;0.10;0.10;;;;;;;;;;5110034;28;20096;-53
2023/07/17 01:15:55;;;;;;;0.10;0.10;;;;;;;;;;5110419;28;20047;-53
2023/07/17 01:18:21;;;;;;;0.10;0.10;;;;;;;;;;5110510;28;20048;-53
2023/07/17 01:20:47;;;;;;;0.10;0.10;;;;;;;;;;5110315;28;20052;-53
2023/07/17 01:23:12;;;;;;;0.10;0.10;;;;;;;;;;5109885;28;20051;-52
2023/07/17 01:25:38;;;;;;;0.10;0.10;;;;;;;;;;5109735;28;20515;-53
2023/07/17 01:28:03;;;;;;;0.10;0.10;;;;;;;;;;5104949;27;20040;-53
2023/07/17 01:30:29;;;;;;;0.10;0.10;;;;;;;;;;5116206;28;20052;-53
2023/07/17 01:32:54;;;;;;;0.10;0.10;;;;;;;;;;5110575;28;20059;-53
2023/07/17 01:35:20;;;;;;;0.10;0.10;;;;;;;;;;5110269;28;20081;-52
2023/07/17 01:37:46;;;;;;;0.10;0.10;;;;;;;;;;5110683;28;20392;-52
2023/07/17 01:40:13;;;;;;;0.10;0.10;;;;;;;;;;5110170;28;20539;-51
2023/07/17 01:42:39;;;;;;;0.10;0.10;;;;;;;;;;5113821;28;20051;-54
2023/07/17 01:45:05;;;;;;;0.10;0.10;;;;;;;;;;5112682;28;20044;-49
2023/07/17 01:47:30;;;;;;;0.10;0.10;;;;;;;;;;5114005;28;20044;-53
2023/07/17 01:49:56;;;;;;;0.10;0.10;;;;;;;;;;5111307;28;20063;-52
2023/07/17 01:52:21;;;;;;;0.10;0.10;;;;;;;;;;5093689;28;20048;-53
2023/07/17 01:54:47;;;;;;;0.10;0.10;;;;;;;;;;5093333;28;20492;-53
2023/07/17 01:57:13;;;;;;;0.10;0.10;;;;;;;;;;5093474;28;20135;-53
2023/07/17 01:59:38;;;;;;;0.10;0.10;;;;;;;;;;5112722;28;20059;-52
2023/07/17 02:02:05;;;;;;;0.10;0.10;;;;;;;;;;5113528;28;20055;-51
2023/07/17 02:04:30;;;;;;;0.10;0.10;;;;;;;;;;5113549;28;20047;-53
2023/07/17 02:06:56;;;;;;;0.10;0.10;;;;;;;;;;5113797;28;20058;-53
2023/07/17 02:09:22;;;;;;;0.10;0.10;;;;;;;;;;5113972;28;20047;-53
2023/07/17 02:11:47;;;;;;;0.10;0.10;;;;;;;;;;5113327;28;20047;-52
2023/07/17 02:14:12;;;;;;;0.10;0.10;;;;;;;;;;5113087;28;20048;-53
2023/07/17 02:16:38;;;;;;;0.10;0.10;;;;;;;;;;5113135;28;20476;-53
2023/07/17 02:19:04;;;;;;;0.10;0.10;;;;;;;;;;5113103;28;20048;-53
2023/07/17 02:21:29;;;;;;;0.10;0.10;;;;;;;;;;5112267;28;20480;-53
2023/07/17 02:23:55;;;;;;;0.10;0.10;;;;;;;;;;5112591;28;20055;-52
2023/07/17 02:26:21;;;;;;;0.10;0.10;;;;;;;;;;5112395;28;20051;-52
2023/07/17 02:28:46;;;;;;;0.10;0.10;;;;;;;;;;5121093;28;20047;-52
2023/07/17 02:31:12;;;;;;;0.10;0.10;;;;;;;;;;5101552;28;20055;-53
2023/07/17 02:33:38;;;;;;;0.10;0.10;;;;;;;;;;5098606;28;20408;-53
2023/07/17 02:36:03;;;;;;;0.10;0.10;;;;;;;;;;5112886;28;20047;-51
2023/07/17 02:38:29;;;;;;;0.10;0.10;;;;;;;;;;5112347;28;20054;-53
2023/07/17 02:40:55;;;;;;;0.10;0.10;;;;;;;;;;5101511;28;20044;-52
2023/07/17 02:43:20;;;;;;;0.10;0.10;;;;;;;;;;5106937;28;20161;-51
2023/07/17 02:45:46;;;;;;;0.10;0.10;;;;;;;;;;5111965;28;20047;-50
2023/07/17 02:48:11;;;;;;;0.10;0.10;;;;;;;;;;5112515;28;20039;-49
2023/07/17 02:50:37;;;;;;;0.10;0.10;;;;;;;;;;5112162;28;20055;-48
2023/07/17 02:53:02;;;;;;;0.10;0.10;;;;;;;;;;5111702;28;20043;-52
2023/07/17 02:55:28;;;;;;;0.10;0.10;;;;;;;;;;5112461;28;20095;-49
2023/07/17 02:57:54;;;;;;;0.10;0.10;;;;;;;;;;5112392;28;20040;-52
2023/07/17 03:00:19;;;;;;;0.10;0.10;;;;;;;;;;5110590;28;20047;-45
2023/07/17 03:02:46;;;;;;;0.10;0.10;;;;;;;;;;5112583;28;20051;-45
2023/07/17 03:05:12;;;;;;;0.10;0.10;;;;;;;;;;5112293;28;20043;-46
2023/07/17 03:07:38;;;;;;;0.10;0.10;;;;;;;;;;5110773;28;20055;-48
2023/07/17 03:10:05;;;;;;;0.10;0.10;;;;;;;;;;5108298;28;20044;-47
2023/07/17 03:12:30;;;;;;;0.10;0.10;;;;;;;;;;5091675;28;20059;-44
2023/07/17 03:14:57;;;;;;;0.10;0.10;;;;;;;;;;5091452;28;20052;-45
2023/07/17 03:17:23;;;;;;;0.10;0.10;;;;;;;;;;5091269;28;20396;-44
2023/07/17 03:19:50;;;;;;;0.10;0.10;;;;;;;;;;5091397;28;20056;-44
2023/07/17 03:22:16;;;;;;;0.10;0.10;;;;;;;;;;5091055;28;20047;-47
2023/07/17 03:24:42;;;;;;;0.10;0.10;;;;;;;;;;5096357;28;20044;-49
2023/07/17 03:27:07;;;;;;;0.10;0.10;;;;;;;;;;5105607;28;20072;-48
2023/07/17 03:29:33;;;;;;;0.10;0.10;;;;;;;;;;5105167;28;20043;-49
2023/07/17 03:31:58;;;;;;;0.10;0.10;;;;;;;;;;5111535;28;20044;-46
2023/07/17 03:34:24;;;;;;;0.10;0.10;;;;;;;;;;5111660;28;20055;-48
2023/07/17 03:36:50;;;;;;;0.10;0.10;;;;;;;;;;5112229;28;20039;-48
2023/07/17 03:39:15;;;;;;;0.10;0.10;;;;;;;;;;5111139;28;20052;-48
2023/07/17 03:41:41;;;;;;;0.10;0.10;;;;;;;;;;5111414;28;20488;-48
2023/07/17 03:44:06;;;;;;;0.10;0.10;;;;;;;;;;5111558;28;20146;-48
2023/07/17 03:46:32;;;;;;;0.10;0.10;;;;;;;;;;5111322;28;20135;-49
2023/07/17 03:48:57;;;;;;;0.10;0.10;;;;;;;;;;5112164;28;20039;-46
2023/07/17 03:51:23;;;;;;;0.10;0.10;;;;;;;;;;5097286;28;20072;-48
2023/07/17 03:53:50;;;;;;;0.10;0.10;;;;;;;;;;5091450;28;20473;-44
2023/07/17 03:56:15;;;;;;;0.10;0.10;;;;;;;;;;5091003;28;20048;-48
2023/07/17 03:58:41;;;;;;;0.10;0.10;;;;;;;;;;5091628;28;20051;-48
2023/07/17 04:01:06;;;;;;;0.10;0.10;;;;;;;;;;5092770;28;20139;-47
2023/07/17 04:03:32;;;;;;;0.10;0.10;;;;;;;;;;5110658;28;20565;-47
2023/07/17 04:05:57;;;;;;;0.10;0.10;;;;;;;;;;5110863;28;20085;-48
2023/07/17 04:08:23;;;;;;;0.10;0.10;;;;;;;;;;5111787;28;20070;-49
2023/07/17 04:10:49;;;;;;;0.10;0.10;;;;;;;;;;5101558;28;20135;-46
2023/07/17 04:13:14;;;;;;;0.10;0.10;;;;;;;;;;5091561;28;20373;-47
2023/07/17 04:15:41;;;;;;;0.10;0.10;;;;;;;;;;5090686;28;20075;-46
2023/07/17 04:18:06;;;;;;;0.10;0.10;;;;;;;;;;5091435;28;20044;-48
2023/07/17 04:20:32;;;;;;;0.10;0.10;;;;;;;;;;5090880;28;20059;-48
2023/07/17 04:22:58;;;;;;;0.10;0.10;;;;;;;;;;5091208;28;20040;-49
2023/07/17 04:25:24;;;;;;;0.10;0.10;;;;;;;;;;5091039;28;20071;-48
2023/07/17 04:27:49;;;;;;;0.10;0.10;;;;;;;;;;5109625;28;20044;-48
2023/07/17 04:30:15;;;;;;;0.10;0.10;;;;;;;;;;5110779;28;20437;-48
2023/07/17 04:32:40;;;;;;;0.10;0.10;;;;;;;;;;5111037;28;20499;-47
2023/07/17 04:35:06;;;;;;;0.10;0.10;;;;;;;;;;5111214;28;20063;-48
2023/07/17 04:37:32;;;;;;;0.10;0.10;;;;;;;;;;5111719;28;20043;-48
2023/07/17 04:39:57;;;;;;;0.10;0.10;;;;;;;;;;5110829;28;20043;-46
2023/07/17 04:42:23;;;;;;;0.10;0.10;;;;;;;;;;5111005;28;20055;-46
2023/07/17 04:44:48;;;;;;;0.10;0.10;;;;;;;;;;5111231;28;20092;-46
2023/07/17 04:47:14;;;;;;;0.10;0.10;;;;;;;;;;5109992;28;20172;-47
2023/07/17 04:49:39;;;;;;;0.10;0.10;;;;;;;;;;5111208;28;20047;-48
2023/07/17 04:52:05;;;;;;;0.10;0.10;;;;;;;;;;5110412;28;20484;-48
2023/07/17 04:54:30;;;;;;;0.10;0.10;;;;;;;;;;5110855;28;20423;-48
2023/07/17 04:56:56;;;;;;;0.10;0.10;;;;;;;;;;5111123;28;20105;-48
2023/07/17 04:59:21;;;;;;;0.10;0.10;;;;;;;;;;5111195;28;20051;-48
2023/07/17 05:01:47;;;;;;;0.10;0.10;;;;;;;;;;5110058;28;20044;-49
2023/07/17 05:04:12;;;;;;;0.10;0.10;;;;;;;;;;5110115;28;20105;-48
2023/07/17 05:06:38;;;;;;;0.10;0.10;;;;;;;;;;5110089;28;20040;-48
2023/07/17 05:09:03;;;;;;;0.10;0.10;;;;;;;;;;5108976;28;20448;-49
2023/07/17 05:11:29;;;;;;;0.10;0.10;;;;;;;;;;5094519;28;20052;-47
2023/07/17 05:13:54;;;;;;;0.10;0.10;;;;;;;;;;5089550;28;20040;-48
2023/07/17 05:16:20;;;;;;;0.10;0.10;;;;;;;;;;5091616;28;20070;-49
2023/07/17 05:18:46;;;;;;;0.10;0.10;;;;;;;;;;5093195;28;20044;-47
2023/07/17 05:21:11;;;;;;;0.10;0.10;;;;;;;;;;5092808;28;20070;-48
2023/07/17 05:23:37;;;;;;;0.10;0.10;;;;;;;;;;5093394;28;20537;-48
2023/07/17 05:26:03;;;;;;;0.10;0.10;;;;;;;;;;5092655;27;20064;-48
2023/07/17 05:28:29;;;;;;;0.10;0.10;;;;;;;;;;5099409;28;20047;-47
2023/07/17 05:30:55;;;;;;;0.10;0.10;;;;;;;;;;5113375;28;20047;-47
2023/07/17 05:33:21;;;;;;;0.10;0.10;;;;;;;;;;5094761;28;20096;-48
2023/07/17 05:35:47;;;;;;;0.10;0.10;;;;;;;;;;5111524;28;20423;-48
2023/07/17 05:38:13;;;;;;;0.10;0.10;;;;;;;;;;5101688;28;20123;-46
2023/07/17 05:40:40;;;;;;;0.10;0.10;;;;;;;;;;5105551;28;20052;-48
2023/07/17 05:43:06;;;;;;;0.10;0.10;;;;;;;;;;5113117;28;20056;-47
2023/07/17 05:45:32;;;;;;;0.10;0.10;;;;;;;;;;5112490;28;20416;-47
2023/07/17 05:47:57;;;;;;;0.10;0.10;;;;;;;;;;5113766;28;20048;-46
2023/07/17 05:50:23;;;;;;;0.10;0.10;;;;;;;;;;5099688;28;20078;-48
2023/07/17 05:52:49;;;;;;;0.10;0.10;;;;;;;;;;5113741;28;20051;-47
2023/07/17 05:55:14;;;;;;;0.10;0.10;;;;;;;;;;5113780;28;20047;-48
2023/07/17 05:57:41;;;;;;;0.10;0.10;;;;;;;;;;5113871;28;20505;-48
2023/07/17 06:00:09;;;;;;;0.10;0.10;;;;;;;;;;5113866;28;20052;-48
2023/07/17 06:02:34;;;;;;;0.10;0.10;;;;;;;;;;5113577;28;20488;-46
2023/07/17 06:05:00;;;;;;;0.10;0.10;;;;;;;;;;5113387;28;20059;-48
2023/07/17 06:07:26;;;;;;;0.10;0.10;;;;;;;;;;5112978;28;20047;-48
2023/07/17 06:09:51;;;;;;;0.10;0.10;;;;;;;;;;5111445;28;20044;-47
2023/07/17 06:12:17;;;;;;;0.10;0.10;;;;;;;;;;5093373;28;20094;-48
2023/07/17 06:14:42;;;;;;;0.10;0.10;;;;;;;;;;5092980;28;20048;-48
2023/07/17 06:17:08;;;;;;;0.10;0.10;;;;;;;;;;5092978;28;20472;-48
2023/07/17 06:19:33;;;;;;;0.10;0.10;;;;;;;;;;5093213;28;20105;-48
2023/07/17 06:21:59;;;;;;;0.10;0.10;;;;;;;;;;5092647;28;20048;-48
2023/07/17 06:24:24;;;;;;;0.10;0.10;;;;;;;;;;5093116;28;20410;-48
2023/07/17 06:26:51;;;;;;;0.10;0.10;;;;;;;;;;5115437;27;20099;-46
2023/07/17 06:29:16;;;;;;;0.10;0.10;;;;;;;;;;5133889;28;20063;-49
2023/07/17 06:31:42;;;;;;;0.10;0.10;;;;;;;;;;5114151;28;20450;-48
2023/07/17 06:34:07;;;;;;;0.20;0.20;;;;;;;;;;5112543;28;20066;-47
2023/07/17 06:36:33;;;;;;;0.10;0.10;;;;;;;;;;5113381;28;20050;-46
2023/07/17 06:38:58;;;;;;;0.10;0.10;;;;;;;;;;5113235;28;20475;-47
2023/07/17 06:41:24;;;;;;;0.10;0.10;;;;;;;;;;5112645;28;20445;-46
2023/07/17 06:43:49;;;;;;;0.10;0.10;;;;;;;;;;5112926;28;20048;-48
2023/07/17 06:46:16;;;;;;;0.10;0.10;;;;;;;;;;5112365;28;20047;-48
2023/07/17 06:48:42;;;;;;;0.10;0.10;;;;;;;;;;5113039;28;20040;-48
2023/07/17 06:51:08;;;;;;;0.10;0.10;;;;;;;;;;5100757;28;20312;-49
2023/07/17 06:53:34;;;;;;;0.10;0.10;;;;;;;;;;5092597;28;20508;-48
2023/07/17 06:56:00;;;;;;;0.10;0.10;;;;;;;;;;5092374;28;20048;-44
2023/07/17 06:58:26;;;;;;;0.10;0.10;;;;;;;;;;5092600;28;20055;-48
2023/07/17 07:00:53;;;;;;;0.10;0.10;;;;;;;;;;5092390;28;20051;-48
2023/07/17 07:03:19;;;;;;;0.10;0.10;;;;;;;;;;5092465;28;20420;-48
2023/07/17 07:05:52;;;;;;;0.10;0.10;;;;;;;;;;5092255;28;20559;-48
2023/07/17 07:08:18;;;;;;;0.10;0.10;;;;;;;;;;5108971;28;20054;-48
2023/07/17 07:10:43;;;;;;;0.10;0.10;;;;;;;;;;5112257;28;20399;-48
2023/07/17 07:13:09;;;;;;;0.10;0.10;;;;;;;;;;5112179;28;20523;-49
2023/07/17 07:15:34;;;;;;;0.10;0.10;;;;;;;;;;5112180;28;20503;-47
2023/07/17 07:18:00;;;;;;;0.10;0.10;;;;;;;;;;5112532;28;20048;-49
2023/07/17 07:20:25;;;;;;;0.10;0.10;;;;;;;;;;5112432;28;20116;-45
2023/07/17 07:22:51;;;;;;;0.10;0.10;;;;;;;;;;5112095;28;20047;-48
2023/07/17 07:25:16;;;;;;;0.10;0.10;;;;;;;;;;5111749;28;20493;-47
2023/07/17 07:27:42;;;;;;;0.10;0.10;;;;;;;;;;5131529;28;20043;-48
2023/07/17 07:30:08;;;;;;;0.10;0.10;;;;;;;;;;5124494;28;20075;-48
2023/07/17 07:32:33;;;;;;;0.10;0.10;;;;;;;;;;5102586;28;20047;-49
2023/07/17 07:34:59;;;;;;;0.10;0.10;;;;;;;;;;5112132;28;20051;-47
2023/07/17 07:37:24;;;;;;;0.10;0.10;;;;;;;;;;5111919;28;20044;-46
2023/07/17 07:39:50;;;;;;;0.10;0.10;;;;;;;;;;5110055;28;20046;-48
2023/07/17 07:42:16;;;;;;;0.10;0.10;;;;;;;;;;5091915;28;20062;-48
2023/07/17 07:44:42;;;;;;;0.10;0.10;;;;;;;;;;5090750;28;20075;-48
2023/07/17 07:47:07;;;;;;;0.10;0.10;;;;;;;;;;5107722;28;20063;-48
2023/07/17 07:49:33;;;;;;;0.10;0.10;;;;;;;;;;5112174;28;20077;-48
2023/07/17 07:51:58;;;;;;;0.10;0.10;;;;;;;;;;5103879;28;20054;-47
2023/07/17 07:54:24;;;;;;;0.10;0.10;;;;;;;;;;5111983;28;20044;-48
2023/07/17 07:56:50;;;;;;;0.10;0.10;;;;;;;;;;5111772;28;20408;-48
2023/07/17 07:59:15;;;;;;;0.10;0.10;;;;;;;;;;5111966;28;20134;-47
2023/07/17 08:01:41;;;;;;;0.10;0.10;;;;;;;;;;5111700;28;20048;-48
2023/07/17 08:04:07;;;;;;;0.10;0.10;;;;;;;;;;5111649;28;20051;-48
2023/07/17 08:06:32;;;;;;;0.10;0.10;;;;;;;;;;5111642;28;20488;-47
2023/07/17 08:08:58;;;;;;;0.10;0.10;;;;;;;;;;5111253;28;20043;-45
2023/07/17 08:11:24;;;;;;;0.10;0.10;;;;;;;;;;5108981;28;20090;-47
2023/07/17 08:13:50;;;;;;;0.25;0.25;;;;;;;;;;5111502;28;20036;-48
2023/07/17 08:16:19;;;;;;;0.10;0.10;;;;;;;;;;5111345;28;20051;-48
2023/07/17 08:18:46;;;;;;;0.10;0.10;;;;;;;;;;5109662;28;20056;-45
2023/07/17 08:21:12;;;;;;;0.10;0.10;;;;;;;;;;5110939;28;20404;-48
2023/07/17 08:23:37;;;;;;;0.10;0.10;;;;;;;;;;5111330;28;20039;-49
2023/07/17 08:26:04;;;;;;;0.10;0.10;;;;;;;;;;5125043;28;20083;-48
2023/07/17 08:28:30;;;;;;;0.10;0.10;;;;;;;;;;5131676;28;20454;-49
2023/07/17 08:30:55;;;;;;;0.10;0.10;;;;;;;;;;5115582;28;20490;-47
2023/07/17 08:33:21;;;;;;;0.10;0.10;;;;;;;;;;5110937;28;20050;-47
2023/07/17 08:35:47;;;;;;;0.10;0.10;;;;;;;;;;5111113;28;20051;-46
2023/07/17 08:38:13;;;;;;;0.10;0.10;;;;;;;;;;5110883;28;20051;-47
2023/07/17 08:40:39;;;;;;;0.10;0.10;;;;;;;;;;5102577;28;20093;-48
2023/07/17 08:43:06;;;;;;;0.10;0.10;;;;;;;;;;5090985;28;20052;-48
2023/07/17 08:45:32;;;;;;;0.10;0.10;;;;;;;;;;5072241;28;20040;-48
2023/07/17 08:47:58;;;;;;;0.10;0.10;;;;;;;;;;5085846;28;20047;-48
2023/07/17 08:50:25;;;;;;;0.10;0.10;;;;;;;;;;5109758;28;20112;-48
2023/07/17 08:52:51;;;;;;;0.10;0.10;;;;;;;;;;5110965;28;20054;-48
2023/07/17 08:55:16;;;;;;;0.10;0.10;;;;;;;;;;5110749;28;20047;-48
2023/07/17 08:57:43;;;;;;;0.10;0.10;;;;;;;;;;5110880;28;20048;-49
2023/07/17 09:00:15;;;;;;;0.10;0.10;;;;;;;;;;5111022;28;20566;-47
2023/07/17 09:02:41;;;;;;;0.10;0.10;;;;;;;;;;5111219;28;20098;-46
2023/07/17 09:05:07;;;;;;;0.10;0.10;;;;;;;;;;5110962;28;20048;-49
2023/07/17 09:07:33;;;;;;;0.10;0.10;;;;;;;;;;5111002;28;20100;-48
2023/07/17 09:10:19;;;;;;;0.10;0.10;;;;;;;;;;5110050;28;20056;-49
2023/07/17 09:13:00;;;;;;;0.10;0.10;;;;;;;;;;5095660;28;20396;-48
2023/07/17 09:15:28;;;;;;;0.10;0.10;;;;;;;;;;5110206;28;20084;-48
2023/07/17 09:17:54;;;;;;;0.10;0.10;;;;;;;;;;5110538;28;20142;-47
2023/07/17 09:20:20;;;;;;;0.10;0.10;;;;;;;;;;5110362;28;20062;-49
2023/07/17 09:22:46;;;;;;;0.10;0.10;;;;;;;;;;5109999;28;20545;-47
2023/07/17 09:25:12;;;;;;;0.10;0.10;;;;;;;;;;5119967;28;20224;-49
2023/07/17 09:27:42;;;;;;;0.10;0.10;;;;;;;;;;5130713;28;20051;-47
2023/07/17 09:30:08;;;;;;;0.10;0.10;;;;;;;;;;5122209;28;20078;-48
2023/07/17 09:32:34;;;;;;;0.20;0.20;;;;;;;;;;5095767;28;20047;-48
2023/07/17 09:35:04;;;;;;;0.10;0.10;;;;;;;;;;5109248;28;20661;-48
2023/07/17 09:37:31;;;;;;;0.10;0.10;;;;;;;;;;5105387;28;20051;-48
2023/07/17 09:39:58;;;;;;;0.10;0.10;;;;;;;;;;5109192;28;20052;-48
2023/07/17 09:42:23;;;;;;;0.10;0.10;;;;;;;;;;5110228;28;20093;-48
2023/07/17 09:44:50;;;;;;;0.10;0.10;;;;;;;;;;5109524;28;20047;-48
2023/07/17 09:47:15;;;;;;;0.10;0.10;;;;;;;;;;5109493;28;20044;-47
2023/07/17 09:49:42;;;;;;;0.10;0.10;;;;;;;;;;5109094;28;20086;-46
2023/07/17 09:52:07;;;;;;;0.10;0.10;;;;;;;;;;5109753;28;20048;-46
2023/07/17 09:54:33;;;;;;;0.10;0.10;;;;;;;;;;5109494;28;20104;-48
2023/07/17 09:56:59;;;;;;;0.20;0.20;;;;;;;;;;5109174;28;20069;-46
2023/07/17 09:59:28;;;;;;;0.10;0.10;;;;;;;;;;5109636;28;20040;-49
2023/07/17 10:01:56;;;;;;;0.10;0.10;;;;;;;;;;5111182;28;20048;-48
2023/07/17 10:04:28;;;;;;;0.10;0.10;;;;;;;;;;5095392;28;20837;-47
2023/07/17 10:06:55;;;;;;;0.10;0.10;;;;;;;;;;5113134;28;20395;-48
2023/07/17 10:09:21;;;;;;;0.10;0.10;;;;;;;;;;5113282;28;20043;-48
2023/07/17 10:11:46;;;;;;;0.10;0.10;;;;;;;;;;5112645;28;20082;-48
2023/07/17 10:14:12;;;;;;;0.10;0.10;;;;;;;;;;5113128;28;20048;-48
2023/07/17 10:16:38;;;;;;;0.10;0.10;;;;;;;;;;5112825;28;20123;-48
2023/07/17 10:19:03;;;;;;;0.10;0.10;;;;;;;;;;5113352;28;20052;-48
2023/07/17 10:21:29;;;;;;;0.10;0.10;;;;;;;;;;5112873;28;20051;-49
2023/07/17 10:24:00;;;;;;;0.10;0.10;;;;;;;;;;5112601;28;20078;-48
2023/07/17 10:26:27;;;;;;;0.10;0.10;;;;;;;;;;5109143;28;20051;-46
2023/07/17 10:28:53;;;;;;;0.10;0.10;;;;;;;;;;5112365;28;20488;-48
2023/07/17 10:31:20;;;;;;;0.10;0.10;;;;;;;;;;5112855;28;20052;-48
2023/07/17 10:33:49;;;;;;;0.10;0.10;;;;;;;;;;5112605;28;20052;-48
2023/07/17 10:36:15;;;;;;;0.10;0.10;;;;;;;;;;5112276;28;20048;-47
2023/07/17 10:38:42;;;;;;;0.10;0.10;;;;;;;;;;5112270;28;20082;-45
2023/07/17 10:41:17;;;;;;;0.10;0.10;;;;;;;;;;5111807;28;20052;-48
2023/07/17 10:44:03;;;;;;;0.10;0.10;;;;;;;;;;5112645;28;20415;-48
2023/07/17 10:46:44;;;;;;;0.10;0.10;;;;;;;;;;5112810;28;20055;-49
2023/07/17 10:49:11;;;;;;;0.10;0.10;;;;;;;;;;5113107;28;20040;-49
2023/07/17 10:51:37;;;;;;;0.10;0.10;;;;;;;;;;5105848;28;20059;-48
2023/07/17 10:54:02;;;;;;;0.10;0.10;;;;;;;;;;5113032;28;20096;-47
2023/07/17 10:56:29;;;;;;;0.10;0.10;;;;;;;;;;5112466;28;20090;-48
2023/07/17 10:58:55;;;;;;;0.10;0.10;;;;;;;;;;5112650;28;20047;-48
2023/07/17 11:01:21;;;;;;;0.10;0.10;;;;;;;;;;5085758;28;20066;-47
2023/07/17 11:03:48;;;;;;;0.10;0.10;;;;;;;;;;5092533;28;20051;-47
2023/07/17 11:06:14;;;;;;;0.10;0.10;;;;;;;;;;5092150;28;20097;-46
2023/07/17 11:08:43;;;;;;;0.10;0.10;;;;;;;;;;5092207;28;20434;-48
2023/07/17 11:11:09;;;;;;;0.10;0.10;;;;;;;;;;5091935;28;20492;-49
2023/07/17 11:13:35;;;;;;;0.10;0.10;;;;;;;;;;5073661;28;20572;-48
2023/07/17 11:16:08;;;;;;;0.10;0.10;;;;;;;;;;5091802;28;20058;-49
2023/07/17 11:18:42;;;;;;;0.10;0.10;;;;;;;;;;5092344;28;20044;-48
2023/07/17 11:21:08;;;;;;;0.10;0.10;;;;;;;;;;5092014;28;20194;-48
2023/07/17 11:23:34;;;;;;;0.10;0.10;;;;;;;;;;5101657;28;20043;-48
2023/07/17 11:25:59;;;;;;;0.10;0.10;;;;;;;;;;5112067;28;20128;-46
2023/07/17 11:28:25;;;;;;;0.10;0.10;;;;;;;;;;5112268;28;20411;-49
2023/07/17 11:30:50;;;;;;;0.10;0.10;;;;;;;;;;5112169;28;20138;-47
2023/07/17 11:33:16;;;;;;;0.10;0.10;;;;;;;;;;5111912;28;20052;-49
2023/07/17 11:35:43;;;;;;;0.38;0.25;;;;;;;;;;5111494;28;20079;-48
2023/07/17 11:38:10;;;;;;;0.10;0.10;;;;;;;;;;5112099;28;20314;-49
2023/07/17 11:40:52;;;;;;;0.10;0.10;;;;;;;;;;5103522;28;20071;-46
2023/07/17 11:43:35;;;;;;;0.10;0.10;;;;;;;;;;5100400;28;20047;-47
2023/07/17 11:46:02;;;;;;;0.10;0.10;;;;;;;;;;5111369;28;20432;-48
2023/07/17 11:48:29;;;;;;;0.10;0.10;;;;;;;;;;5112244;28;20047;-48
2023/07/17 11:50:56;;;;;;;0.10;0.10;;;;;;;;;;5111816;28;20083;-46
2023/07/17 11:53:22;;;;;;;0.10;0.10;;;;;;;;;;5111710;28;20051;-48
2023/07/17 11:55:48;;;;;;;0.10;0.10;;;;;;;;;;5111819;28;20138;-48
2023/07/17 11:58:16;;;;;;;0.10;0.10;;;;;;;;;;5111484;28;20055;-48
2023/07/17 12:00:42;;;;;;;0.10;0.10;;;;;;;;;;5111697;28;20075;-47
2023/07/17 12:03:08;;;;;;;0.10;0.10;;;;;;;;;;5093888;28;20288;-48
2023/07/17 12:05:34;;;;;;;0.10;0.10;;;;;;;;;;5111821;28;20082;-46
2023/07/17 12:08:00;;;;;;;0.10;0.10;;;;;;;;;;5111314;28;20437;-47
2023/07/17 12:10:25;;;;;;;0.10;0.10;;;;;;;;;;5111429;28;20054;-46
2023/07/17 12:12:52;;;;;;;0.10;0.10;;;;;;;;;;5111687;28;20523;-46
2023/07/17 12:15:18;;;;;;;0.10;0.10;;;;;;;;;;5110893;28;20047;-48
2023/07/17 12:17:44;;;;;;;0.10;0.10;;;;;;;;;;5111729;28;20044;-48
2023/07/17 12:20:10;;;;;;;0.10;0.10;;;;;;;;;;5111591;28;20046;-49
2023/07/17 12:22:35;;;;;;;0.10;0.10;;;;;;;;;;5112540;28;20537;-49
2023/07/17 12:25:01;;;;;;;0.10;0.10;;;;;;;;;;5130895;27;20096;-49
2023/07/17 12:27:26;;;;;;;0.10;0.10;;;;;;;;;;5131763;28;20070;-48
2023/07/17 12:29:55;;;;;;;0.10;0.10;;;;;;;;;;5121282;28;20055;-48
2023/07/17 12:32:21;;;;;;;0.10;0.10;;;;;;;;;;5111636;28;20051;-49
2023/07/17 12:34:47;;;;;;;0.10;0.10;;;;;;;;;;5111224;28;20105;-48
2023/07/17 12:37:13;;;;;;;0.10;0.10;;;;;;;;;;5111469;28;20396;-49
2023/07/17 12:39:38;;;;;;;0.10;0.10;;;;;;;;;;5110924;28;20487;-48
2023/07/17 12:42:04;;;;;;;0.10;0.10;;;;;;;;;;5110005;28;20412;-46
2023/07/17 12:44:30;;;;;;;0.10;0.10;;;;;;;;;;5110920;28;20130;-48
2023/07/17 12:46:56;;;;;;;0.10;0.10;;;;;;;;;;5110322;28;20112;-49
2023/07/17 12:49:22;;;;;;;0.10;0.10;;;;;;;;;;5109909;28;20055;-47
2023/07/17 12:51:47;;;;;;;0.10;0.10;;;;;;;;;;5092733;28;20446;-49
2023/07/17 12:54:13;;;;;;;0.10;0.10;;;;;;;;;;5092237;28;20044;-48
2023/07/17 12:56:39;;;;;;;0.10;0.10;;;;;;;;;;5110512;28;20456;-48
2023/07/17 12:59:05;;;;;;;0.10;0.10;;;;;;;;;;5111216;28;20512;-47
2023/07/17 13:01:31;;;;;;;0.10;0.10;;;;;;;;;;5110370;28;20043;-48
2023/07/17 13:03:56;;;;;;;0.10;0.10;;;;;;;;;;5111374;28;20093;-48
2023/07/17 13:06:22;;;;;;;0.10;0.10;;;;;;;;;;5111113;28;20036;-44
2023/07/17 13:08:48;;;;;;;0.10;0.10;;;;;;;;;;5111083;28;20051;-48
2023/07/17 13:11:14;;;;;;;0.10;0.10;;;;;;;;;;5110740;28;20124;-46
2023/07/17 13:13:39;;;;;;;0.10;0.10;;;;;;;;;;5110532;28;20445;-47
2023/07/17 13:16:05;;;;;;;0.10;0.10;;;;;;;;;;5110037;28;20051;-47
2023/07/17 13:18:31;;;;;;;0.10;0.10;;;;;;;;;;5111051;28;20059;-47
2023/07/17 13:20:56;;;;;;;0.10;0.10;;;;;;;;;;5110748;28;20051;-47
2023/07/17 13:23:22;;;;;;;0.10;0.10;;;;;;;;;;5118265;27;20070;-47
2023/07/17 13:25:47;;;;;;;0.10;0.10;;;;;;;;;;5131145;28;20039;-48
2023/07/17 13:28:13;;;;;;;0.10;0.10;;;;;;;;;;5130878;28;20567;-47
2023/07/17 13:30:39;;;;;;;0.10;0.10;;;;;;;;;;5113193;28;20091;-48
2023/07/17 13:33:05;;;;;;;0.10;0.10;;;;;;;;;;5089943;28;20052;-44
2023/07/17 13:35:30;;;;;;;0.10;0.10;;;;;;;;;;5089503;28;20097;-46
2023/07/17 13:37:56;;;;;;;0.17;0.17;;;;;;;;;;5092550;28;20140;-48
2023/07/17 13:40:23;;;;;;;0.10;0.10;;;;;;;;;;5105691;28;20043;-45
2023/07/17 13:42:49;;;;;;;0.10;0.10;;;;;;;;;;5113357;28;20047;-45
2023/07/17 13:45:14;;;;;;;0.10;0.10;;;;;;;;;;5112966;28;20051;-47
2023/07/17 13:47:40;;;;;;;0.10;0.10;;;;;;;;;;5112079;28;20124;-47
2023/07/17 13:50:06;;;;;;;0.10;0.10;;;;;;;;;;5109600;28;20056;-47
2023/07/17 13:52:32;;;;;;;0.10;0.10;;;;;;;;;;5093053;28;20105;-46
2023/07/17 13:54:57;;;;;;;0.10;0.10;;;;;;;;;;5092895;28;20403;-47
2023/07/17 13:57:23;;;;;;;0.10;0.10;;;;;;;;;;5105316;28;20093;-46
2023/07/17 13:59:48;;;;;;;0.10;0.10;;;;;;;;;;5111890;28;20411;-46
2023/07/17 14:02:18;;;;;;;0.10;0.10;;;;;;;;;;5100916;28;20157;-47
2023/07/17 14:04:44;;;;;;;0.10;0.10;;;;;;;;;;5113002;28;20412;-44
2023/07/17 14:07:09;;;;;;;0.10;0.10;;;;;;;;;;5113074;28;20093;-47
2023/07/17 14:09:35;;;;;;;0.10;0.10;;;;;;;;;;5113436;28;20472;-48
2023/07/17 14:12:00;;;;;;;0.10;0.10;;;;;;;;;;5093384;28;20064;-48
2023/07/17 14:14:28;;;;;;;0.20;0.20;;;;;;;;;;5093328;28;20090;-47
2023/07/17 14:16:54;;;;;;;0.10;0.10;;;;;;;;;;5092616;28;20578;-47
2023/07/17 14:19:20;;;;;;;0.10;0.10;;;;;;;;;;5092924;28;20515;-47
2023/07/17 14:21:48;;;;;;;0.10;0.10;;;;;;;;;;5107575;28;20423;-47
2023/07/17 14:24:14;;;;;;;0.10;0.10;;;;;;;;;;5118460;28;20472;-47
2023/07/17 14:26:40;;;;;;;0.10;0.10;;;;;;;;;;5113115;28;20044;-45
2023/07/17 14:29:05;;;;;;;0.10;0.10;;;;;;;;;;5113151;28;20412;-47
2023/07/17 14:31:31;;;;;;;0.10;0.10;;;;;;;;;;5113399;28;20050;-47
2023/07/17 14:33:56;;;;;;;0.10;0.10;;;;;;;;;;5113296;28;20044;-47
2023/07/17 14:36:22;;;;;;;0.10;0.10;;;;;;;;;;5113442;28;20476;-44